Terminal Aerodrome Forecast
Issued by NWS Wilmington, OH

Current Version | Previous Version | Graphics & Text | Print | Product List | Glossary On
Versions: 1 2 3 4 5 6 7 8 9 10 11 12 13 14 15 16 17 18 19 20 21 22 23 24
737
FTUS41 KILN 190821 AAB
TAFILN
TAF AMD
KILN 190821Z 1908/2006 24009KT P6SM SCT012
      TEMPO 1908/1910 5SM BR OVC008
     FM191000 25008KT 5SM BR OVC008
     FM191500 27008KT P6SM SCT025
     FM200000 23005KT P6SM SCT250
     FM200500 21003KT 5SM BR SCT250=

USA.gov is the U.S. government's official web portal to all federal, state and local government web resources and services.